IBE369 EGKK-LEMD
Flight info
| Callsign | IBE369 |
|---|---|
| Flight time | 1h 48m |
| Altitude | 31000 |
| Route | IMVUR N63 SAM M195 MARUK/N0455F330 N621 LELNA DCT NOVAN DCT DELOG N864 NONTU |
| Aircraft | A320/M-SDE3FGHIRWY/LB1 |
Departure
| Time | 2026-05-04 10:04 |
|---|---|
| Airport | London Gatwick Airport (EGKK) |
Arrival
| Time | 2026-05-04 11:52 |
|---|---|
| Airport | Adolfo Suárez Madrid–Barajas Airport (LEMD) |
| Time | Latitude | Longitude | Altitude | Speed | Heading |
|---|---|---|---|---|---|
| 2026-05-04 09:38 | 51.15506 | -0.16778 | 212 ft | 0 kts | 348° |
| 2026-05-04 09:47 | 51.15504 | -0.16778 | 204 ft | 1 kts | 348° |
| 2026-05-04 09:47 | 51.15488 | -0.16772 | 206 ft | 3 kts | 345° |
| 2026-05-04 09:49 | 51.15441 | -0.16719 | 211 ft | 0 kts | 296° |
| 2026-05-04 09:52 | 51.15448 | -0.16743 | 216 ft | 5 kts | 295° |
| 2026-05-04 09:52 | 51.15453 | -0.16789 | 214 ft | 4 kts | 269° |
| 2026-05-04 09:52 | 51.15448 | -0.16833 | 210 ft | 6 kts | 257° |
| 2026-05-04 09:52 | 51.15441 | -0.16892 | 204 ft | 6 kts | 259° |
| 2026-05-04 09:53 | 51.15432 | -0.16961 | 213 ft | 8 kts | 256° |
| 2026-05-04 09:53 | 51.15413 | -0.17084 | 209 ft | 12 kts | 257° |
| 2026-05-04 09:53 | 51.15386 | -0.17192 | 208 ft | 9 kts | 249° |
| 2026-05-04 09:53 | 51.15373 | -0.17257 | 214 ft | 10 kts | 253° |
| 2026-05-04 09:54 | 51.15338 | -0.17358 | 210 ft | 9 kts | 208° |
| 2026-05-04 09:54 | 51.15302 | -0.17425 | 211 ft | 8 kts | 254° |
| 2026-05-04 09:54 | 51.15289 | -0.17537 | 203 ft | 12 kts | 256° |
| 2026-05-04 09:54 | 51.15271 | -0.17663 | 211 ft | 11 kts | 257° |
| 2026-05-04 09:55 | 51.15256 | -0.17767 | 207 ft | 9 kts | 258° |
| 2026-05-04 09:55 | 51.15241 | -0.17881 | 208 ft | 17 kts | 257° |
| 2026-05-04 09:55 | 51.15216 | -0.18065 | 213 ft | 16 kts | 257° |
| 2026-05-04 09:55 | 51.15193 | -0.18226 | 205 ft | 14 kts | 258° |
| 2026-05-04 09:56 | 51.15180 | -0.18370 | 203 ft | 12 kts | 258° |
| 2026-05-04 09:56 | 51.15163 | -0.18494 | 208 ft | 11 kts | 256° |
| 2026-05-04 09:56 | 51.15147 | -0.18612 | 203 ft | 15 kts | 258° |
| 2026-05-04 09:56 | 51.15120 | -0.18801 | 205 ft | 17 kts | 257° |
| 2026-05-04 09:57 | 51.15096 | -0.18974 | 210 ft | 15 kts | 257° |
| 2026-05-04 09:57 | 51.15082 | -0.19074 | 207 ft | 13 kts | 258° |
| 2026-05-04 09:57 | 51.15065 | -0.19209 | 204 ft | 12 kts | 257° |
| 2026-05-04 09:57 | 51.15037 | -0.19410 | 207 ft | 13 kts | 257° |
| 2026-05-04 09:58 | 51.15018 | -0.19540 | 207 ft | 11 kts | 257° |
| 2026-05-04 09:58 | 51.14997 | -0.19696 | 213 ft | 18 kts | 258° |
| 2026-05-04 09:58 | 51.14971 | -0.19884 | 213 ft | 17 kts | 257° |
| 2026-05-04 10:00 | 51.14759 | -0.20765 | 204 ft | 11 kts | 257° |
| 2026-05-04 10:00 | 51.14746 | -0.20855 | 206 ft | 17 kts | 258° |
| 2026-05-04 10:02 | 51.14648 | -0.20252 | 209 ft | 101 kts | 77° |
| 2026-05-04 10:04 | 51.17071 | -0.05690 | 5121 ft | 234 kts | 42° |
| 2026-05-04 10:04 | 51.18517 | -0.04594 | 5793 ft | 240 kts | 6° |
| 2026-05-04 10:04 | 51.20194 | -0.04747 | 6487 ft | 244 kts | 348° |
| 2026-05-04 10:04 | 51.21710 | -0.05899 | 7224 ft | 242 kts | 309° |
| 2026-05-04 10:05 | 51.22449 | -0.08194 | 8327 ft | 242 kts | 283° |
| 2026-05-04 10:05 | 51.22590 | -0.10970 | 8917 ft | 265 kts | 262° |
| 2026-05-04 10:05 | 51.22313 | -0.13965 | 9746 ft | 278 kts | 259° |
| 2026-05-04 10:05 | 51.21973 | -0.17042 | 10736 ft | 284 kts | 258° |
| 2026-05-04 10:06 | 51.21359 | -0.20145 | 11298 ft | 307 kts | 239° |
| 2026-05-04 10:06 | 51.19963 | -0.22868 | 11726 ft | 330 kts | 225° |
| 2026-05-04 10:06 | 51.18296 | -0.25563 | 12152 ft | 352 kts | 224° |
| 2026-05-04 10:08 | 51.07378 | -0.42884 | 17023 ft | 383 kts | 224° |
| 2026-05-04 10:08 | 51.05488 | -0.45894 | 17704 ft | 389 kts | 224° |
| 2026-05-04 10:08 | 51.03693 | -0.48748 | 17857 ft | 403 kts | 224° |
| 2026-05-04 10:08 | 51.01671 | -0.51954 | 17996 ft | 417 kts | 224° |
| 2026-05-04 10:09 | 50.99595 | -0.55235 | 18232 ft | 425 kts | 224° |
| 2026-05-04 10:09 | 50.97492 | -0.58560 | 18567 ft | 428 kts | 224° |
| 2026-05-04 10:09 | 50.95402 | -0.61862 | 18915 ft | 431 kts | 224° |
| 2026-05-04 10:09 | 50.93278 | -0.65218 | 19260 ft | 433 kts | 224° |
| 2026-05-04 10:10 | 50.91136 | -0.68594 | 19601 ft | 435 kts | 224° |
| 2026-05-04 10:10 | 50.88988 | -0.71973 | 19934 ft | 437 kts | 224° |
| 2026-05-04 10:10 | 50.86829 | -0.75362 | 20250 ft | 438 kts | 224° |
| 2026-05-04 10:10 | 50.84655 | -0.78771 | 20542 ft | 441 kts | 224° |
| 2026-05-04 10:11 | 50.82474 | -0.82189 | 20837 ft | 442 kts | 224° |
| 2026-05-04 10:11 | 50.80280 | -0.85618 | 21124 ft | 444 kts | 224° |
| 2026-05-04 10:11 | 50.78108 | -0.89006 | 21406 ft | 446 kts | 224° |
| 2026-05-04 10:11 | 50.75899 | -0.92449 | 21676 ft | 447 kts | 224° |
| 2026-05-04 10:12 | 50.73677 | -0.95915 | 21951 ft | 449 kts | 224° |
| 2026-05-04 10:12 | 50.71454 | -0.99384 | 22202 ft | 451 kts | 224° |
| 2026-05-04 10:12 | 50.69219 | -1.02862 | 22446 ft | 452 kts | 224° |
| 2026-05-04 10:12 | 50.66973 | -1.06344 | 22684 ft | 454 kts | 224° |
| 2026-05-04 10:13 | 50.64717 | -1.09835 | 22903 ft | 455 kts | 224° |
| 2026-05-04 10:13 | 50.62454 | -1.13334 | 23118 ft | 457 kts | 223° |
| 2026-05-04 10:13 | 50.60182 | -1.16843 | 23322 ft | 458 kts | 223° |
| 2026-05-04 10:13 | 50.57936 | -1.20310 | 23516 ft | 459 kts | 223° |
| 2026-05-04 10:14 | 50.55653 | -1.23827 | 23684 ft | 460 kts | 223° |
| 2026-05-04 10:14 | 50.53361 | -1.27349 | 23832 ft | 461 kts | 223° |
| 2026-05-04 10:16 | 50.37456 | -1.51698 | 25388 ft | 452 kts | 223° |
| 2026-05-04 10:16 | 50.35202 | -1.55126 | 25551 ft | 452 kts | 222° |
| 2026-05-04 10:16 | 50.32943 | -1.58555 | 25696 ft | 452 kts | 222° |
| 2026-05-04 10:16 | 50.30683 | -1.61980 | 25829 ft | 452 kts | 222° |
| 2026-05-04 10:17 | 50.28423 | -1.65398 | 25957 ft | 453 kts | 222° |
| 2026-05-04 10:17 | 50.26157 | -1.68819 | 26079 ft | 453 kts | 222° |
| 2026-05-04 10:19 | 50.10367 | -1.92571 | 27006 ft | 449 kts | 221° |
| 2026-05-04 10:19 | 50.08117 | -1.95937 | 27209 ft | 447 kts | 221° |
| 2026-05-04 10:19 | 50.05880 | -1.99283 | 27429 ft | 445 kts | 221° |
| 2026-05-04 10:19 | 50.03647 | -2.02612 | 27580 ft | 445 kts | 221° |
| 2026-05-04 10:20 | 50.01406 | -2.05940 | 27718 ft | 445 kts | 220° |
| 2026-05-04 10:20 | 49.99040 | -2.08894 | 27847 ft | 442 kts | 212° |
| 2026-05-04 10:20 | 49.96385 | -2.11204 | 28304 ft | 433 kts | 203° |
| 2026-05-04 10:20 | 49.93597 | -2.12822 | 28836 ft | 425 kts | 196° |
| 2026-05-04 10:21 | 49.90785 | -2.14148 | 29280 ft | 421 kts | 196° |
| 2026-05-04 10:21 | 49.87990 | -2.15461 | 29660 ft | 418 kts | 196° |
| 2026-05-04 10:21 | 49.85211 | -2.16759 | 30017 ft | 416 kts | 196° |
| 2026-05-04 10:21 | 49.82442 | -2.18047 | 30311 ft | 415 kts | 196° |
| 2026-05-04 10:22 | 49.76911 | -2.20616 | 30782 ft | 415 kts | 196° |
| 2026-05-04 10:22 | 49.74180 | -2.21879 | 31002 ft | 416 kts | 196° |
| 2026-05-04 10:22 | 49.71410 | -2.23161 | 31224 ft | 416 kts | 196° |
| 2026-05-04 10:23 | 49.68639 | -2.24442 | 31464 ft | 416 kts | 196° |
| 2026-05-04 10:23 | 49.65864 | -2.25725 | 31688 ft | 417 kts | 196° |
| 2026-05-04 10:25 | 49.46288 | -2.34747 | 33174 ft | 422 kts | 196° |
| 2026-05-04 10:25 | 49.43478 | -2.36033 | 33398 ft | 422 kts | 196° |
| 2026-05-04 10:25 | 49.40661 | -2.37323 | 33628 ft | 422 kts | 196° |
| 2026-05-04 10:25 | 49.37844 | -2.38613 | 33850 ft | 423 kts | 196° |
| 2026-05-04 10:26 | 49.35022 | -2.39900 | 34059 ft | 423 kts | 196° |
| 2026-05-04 10:26 | 49.32200 | -2.41185 | 34238 ft | 424 kts | 196° |
| 2026-05-04 10:26 | 49.29407 | -2.42458 | 34401 ft | 425 kts | 196° |
| 2026-05-04 10:26 | 49.26574 | -2.43752 | 34570 ft | 425 kts | 196° |
| 2026-05-04 10:27 | 49.23738 | -2.45045 | 34737 ft | 426 kts | 196° |
| 2026-05-04 10:27 | 49.20896 | -2.46336 | 34913 ft | 426 kts | 196° |
| 2026-05-04 10:27 | 49.18049 | -2.47625 | 35008 ft | 428 kts | 196° |
| 2026-05-04 10:28 | 49.12308 | -2.50216 | 35024 ft | 431 kts | 196° |
| 2026-05-04 10:28 | 49.06560 | -2.52813 | 35023 ft | 431 kts | 196° |
| 2026-05-04 10:29 | 49.00848 | -2.55398 | 35019 ft | 431 kts | 196° |
| 2026-05-04 10:29 | 48.95094 | -2.57997 | 35016 ft | 431 kts | 196° |
| 2026-05-04 10:30 | 48.89339 | -2.60563 | 35014 ft | 431 kts | 196° |
| 2026-05-04 10:30 | 48.83586 | -2.63139 | 35018 ft | 432 kts | 196° |
| 2026-05-04 10:31 | 48.77852 | -2.65697 | 35001 ft | 433 kts | 195° |
| 2026-05-04 10:32 | 48.57265 | -2.74826 | 35005 ft | 448 kts | 196° |
| 2026-05-04 10:33 | 48.51326 | -2.77452 | 35005 ft | 448 kts | 196° |
| 2026-05-04 10:33 | 48.45338 | -2.80087 | 35005 ft | 448 kts | 196° |
| 2026-05-04 10:34 | 48.39346 | -2.82714 | 35004 ft | 449 kts | 196° |
| 2026-05-04 10:34 | 48.33359 | -2.85328 | 35013 ft | 448 kts | 196° |
| 2026-05-04 10:35 | 48.27376 | -2.87954 | 35020 ft | 448 kts | 196° |
| 2026-05-04 10:35 | 48.21438 | -2.90559 | 35013 ft | 447 kts | 196° |
| 2026-05-04 10:36 | 48.15463 | -2.93161 | 35009 ft | 446 kts | 196° |
| 2026-05-04 10:36 | 48.09501 | -2.95735 | 35011 ft | 446 kts | 196° |
| 2026-05-04 10:37 | 48.03544 | -2.98312 | 35020 ft | 446 kts | 196° |
| 2026-05-04 10:37 | 47.97618 | -3.00875 | 35003 ft | 447 kts | 196° |
| 2026-05-04 10:39 | 47.76667 | -3.09860 | 35005 ft | 448 kts | 196° |
| 2026-05-04 10:40 | 47.70756 | -3.12393 | 35007 ft | 449 kts | 196° |
| 2026-05-04 10:40 | 47.64733 | -3.14961 | 35012 ft | 448 kts | 196° |
| 2026-05-04 10:41 | 47.58731 | -3.17511 | 35013 ft | 448 kts | 196° |
| 2026-05-04 10:41 | 47.52736 | -3.20050 | 35012 ft | 448 kts | 196° |
| 2026-05-04 10:42 | 47.46778 | -3.22571 | 35018 ft | 448 kts | 196° |
| 2026-05-04 10:42 | 47.40790 | -3.25096 | 35017 ft | 448 kts | 196° |
| 2026-05-04 10:43 | 47.34801 | -3.27617 | 35014 ft | 447 kts | 196° |
| 2026-05-04 10:45 | 47.10911 | -3.37622 | 35020 ft | 448 kts | 196° |
| 2026-05-04 10:45 | 47.04918 | -3.40119 | 35022 ft | 448 kts | 196° |
| 2026-05-04 10:46 | 46.98961 | -3.42592 | 35023 ft | 448 kts | 196° |
| 2026-05-04 10:46 | 46.92969 | -3.45085 | 35023 ft | 448 kts | 196° |
| 2026-05-04 10:47 | 46.86970 | -3.47567 | 35011 ft | 448 kts | 196° |
| 2026-05-04 10:47 | 46.80959 | -3.50033 | 35011 ft | 449 kts | 196° |
| 2026-05-04 10:49 | 46.56917 | -3.59885 | 35023 ft | 450 kts | 196° |
| 2026-05-04 10:50 | 46.50895 | -3.62345 | 35020 ft | 450 kts | 196° |
| 2026-05-04 10:52 | 46.26602 | -3.70776 | 35013 ft | 451 kts | 187° |
| 2026-05-04 10:52 | 46.20357 | -3.71697 | 35022 ft | 451 kts | 186° |
| 2026-05-04 10:54 | 45.95397 | -3.75394 | 35029 ft | 452 kts | 187° |
| 2026-05-04 10:56 | 45.70441 | -3.79076 | 35027 ft | 451 kts | 187° |
| 2026-05-04 10:57 | 45.64198 | -3.79989 | 35030 ft | 451 kts | 187° |
| 2026-05-04 10:57 | 45.58004 | -3.80893 | 35033 ft | 450 kts | 187° |
| 2026-05-04 10:58 | 45.51771 | -3.81798 | 35041 ft | 450 kts | 187° |
| 2026-05-04 10:58 | 45.45545 | -3.82705 | 35043 ft | 450 kts | 187° |
| 2026-05-04 10:59 | 45.39323 | -3.83612 | 35042 ft | 449 kts | 187° |
| 2026-05-04 10:59 | 45.33150 | -3.84505 | 35041 ft | 449 kts | 187° |
| 2026-05-04 11:00 | 45.26940 | -3.85404 | 35038 ft | 448 kts | 187° |
| 2026-05-04 11:02 | 45.02163 | -3.88955 | 35042 ft | 448 kts | 187° |
| 2026-05-04 11:05 | 44.55633 | -3.95570 | 35043 ft | 449 kts | 187° |
| 2026-05-04 11:06 | 44.49458 | -3.96433 | 35033 ft | 449 kts | 187° |
| 2026-05-04 11:06 | 44.43242 | -3.97298 | 35036 ft | 449 kts | 187° |
| 2026-05-04 11:10 | 43.99418 | -3.95482 | 35049 ft | 453 kts | 178° |
| 2026-05-04 11:12 | 43.74268 | -3.93045 | 35054 ft | 454 kts | 179° |
| 2026-05-04 11:12 | 43.67963 | -3.92446 | 35059 ft | 454 kts | 179° |
| 2026-05-04 11:13 | 43.61700 | -3.91854 | 35060 ft | 454 kts | 179° |
| 2026-05-04 11:13 | 43.55394 | -3.91244 | 35056 ft | 454 kts | 179° |
| 2026-05-04 11:14 | 43.49087 | -3.90637 | 35064 ft | 455 kts | 179° |
| 2026-05-04 11:16 | 43.24114 | -3.93338 | 35066 ft | 451 kts | 188° |
| 2026-05-04 11:16 | 43.17867 | -3.94263 | 35066 ft | 451 kts | 188° |
| 2026-05-04 11:17 | 43.11659 | -3.95185 | 35052 ft | 452 kts | 189° |
| 2026-05-04 11:19 | 42.86685 | -3.98837 | 35049 ft | 452 kts | 189° |
| 2026-05-04 11:19 | 42.80430 | -3.99747 | 35052 ft | 452 kts | 189° |
| 2026-05-04 11:20 | 42.74173 | -4.00661 | 35054 ft | 452 kts | 189° |
| 2026-05-04 11:20 | 42.67919 | -4.01570 | 35050 ft | 452 kts | 189° |
| 2026-05-04 11:22 | 42.42939 | -4.05157 | 35039 ft | 452 kts | 189° |
| 2026-05-04 11:23 | 42.36681 | -4.06069 | 35044 ft | 452 kts | 189° |
| 2026-05-04 11:25 | 42.14826 | -4.09194 | 35040 ft | 452 kts | 189° |
| 2026-05-04 11:25 | 42.08570 | -4.10092 | 35026 ft | 452 kts | 189° |
| 2026-05-04 11:27 | 41.80407 | -4.13462 | 35035 ft | 452 kts | 188° |
| 2026-05-04 11:28 | 41.74185 | -4.14170 | 35035 ft | 452 kts | 188° |
| 2026-05-04 11:28 | 41.67920 | -4.14880 | 35018 ft | 452 kts | 189° |
| 2026-05-04 11:29 | 41.61658 | -4.15583 | 35032 ft | 452 kts | 189° |
| 2026-05-04 11:29 | 41.55396 | -4.16290 | 35035 ft | 451 kts | 189° |
| 2026-05-04 11:33 | 41.11660 | -4.20470 | 35041 ft | 452 kts | 187° |
| 2026-05-04 11:33 | 41.08529 | -4.20626 | 34857 ft | 448 kts | 187° |
| 2026-05-04 11:33 | 41.05436 | -4.20796 | 34316 ft | 441 kts | 187° |
| 2026-05-04 11:34 | 41.02388 | -4.20980 | 33668 ft | 436 kts | 188° |
| 2026-05-04 11:34 | 40.99360 | -4.21172 | 32839 ft | 436 kts | 188° |
| 2026-05-04 11:34 | 40.96328 | -4.21371 | 31947 ft | 437 kts | 188° |
| 2026-05-04 11:34 | 40.93287 | -4.21569 | 31028 ft | 439 kts | 187° |
| 2026-05-04 11:35 | 40.90229 | -4.21760 | 30096 ft | 441 kts | 187° |
| 2026-05-04 11:35 | 40.87190 | -4.21943 | 28971 ft | 444 kts | 187° |
| 2026-05-04 11:35 | 40.84097 | -4.22127 | 27806 ft | 447 kts | 187° |
| 2026-05-04 11:35 | 40.80982 | -4.22310 | 26633 ft | 449 kts | 187° |
| 2026-05-04 11:36 | 40.77861 | -4.22496 | 25770 ft | 446 kts | 187° |
| 2026-05-04 11:36 | 40.74776 | -4.22677 | 25011 ft | 441 kts | 187° |
| 2026-05-04 11:36 | 40.71725 | -4.22859 | 24261 ft | 437 kts | 186° |
| 2026-05-04 11:36 | 40.68702 | -4.23040 | 23529 ft | 433 kts | 186° |
| 2026-05-04 11:37 | 40.65706 | -4.23218 | 22691 ft | 429 kts | 186° |
| 2026-05-04 11:37 | 40.62736 | -4.23396 | 21936 ft | 425 kts | 186° |
| 2026-05-04 11:37 | 40.59832 | -4.23569 | 21233 ft | 422 kts | 186° |
| 2026-05-04 11:37 | 40.56916 | -4.23743 | 20559 ft | 418 kts | 186° |
| 2026-05-04 11:38 | 40.54014 | -4.23763 | 19906 ft | 418 kts | 179° |
| 2026-05-04 11:38 | 40.51146 | -4.23148 | 19277 ft | 419 kts | 169° |
| 2026-05-04 11:38 | 40.48387 | -4.21908 | 18675 ft | 419 kts | 162° |
| 2026-05-04 11:38 | 40.45683 | -4.20520 | 18032 ft | 416 kts | 162° |
| 2026-05-04 11:39 | 40.42995 | -4.19139 | 17400 ft | 413 kts | 162° |
| 2026-05-04 11:39 | 40.40332 | -4.17769 | 16822 ft | 409 kts | 161° |
| 2026-05-04 11:40 | 40.30764 | -4.00453 | 13524 ft | 404 kts | 110° |
| 2026-05-04 11:41 | 40.29893 | -3.96977 | 12929 ft | 400 kts | 110° |
| 2026-05-04 11:41 | 40.29029 | -3.93554 | 12623 ft | 389 kts | 110° |
| 2026-05-04 11:41 | 40.28197 | -3.90261 | 12484 ft | 373 kts | 110° |
| 2026-05-04 11:41 | 40.27397 | -3.87094 | 12355 ft | 359 kts | 110° |
| 2026-05-04 11:42 | 40.26639 | -3.84087 | 12226 ft | 346 kts | 110° |
| 2026-05-04 11:42 | 40.25895 | -3.81143 | 12093 ft | 335 kts | 111° |
| 2026-05-04 11:42 | 40.25174 | -3.78303 | 11964 ft | 324 kts | 111° |
| 2026-05-04 11:42 | 40.24473 | -3.75551 | 11787 ft | 315 kts | 111° |
| 2026-05-04 11:43 | 40.23784 | -3.72847 | 11513 ft | 312 kts | 111° |
| 2026-05-04 11:43 | 40.23099 | -3.70163 | 11169 ft | 310 kts | 111° |
| 2026-05-04 11:43 | 40.22418 | -3.67493 | 10816 ft | 308 kts | 111° |
| 2026-05-04 11:43 | 40.21775 | -3.64759 | 10200 ft | 319 kts | 103° |
| 2026-05-04 11:44 | 40.21748 | -3.61871 | 10036 ft | 325 kts | 80° |
| 2026-05-04 11:44 | 40.22522 | -3.59150 | 9902 ft | 321 kts | 57° |
| 2026-05-04 11:44 | 40.23962 | -3.56979 | 9337 ft | 320 kts | 35° |
| 2026-05-04 11:44 | 40.25964 | -3.55664 | 8469 ft | 328 kts | 9° |
| 2026-05-04 11:45 | 40.28340 | -3.55433 | 8125 ft | 355 kts | 354° |
| 2026-05-04 11:45 | 40.30835 | -3.55491 | 7752 ft | 359 kts | 356° |
| 2026-05-04 11:45 | 40.33327 | -3.55526 | 7194 ft | 357 kts | 356° |
| 2026-05-04 11:45 | 40.35823 | -3.55546 | 7029 ft | 359 kts | 356° |
| 2026-05-04 11:46 | 40.38320 | -3.55564 | 7005 ft | 360 kts | 356° |
| 2026-05-04 11:46 | 40.40822 | -3.55584 | 7008 ft | 359 kts | 356° |
| 2026-05-04 11:46 | 40.43292 | -3.55610 | 7011 ft | 359 kts | 358° |
| 2026-05-04 11:46 | 40.45774 | -3.55649 | 7006 ft | 356 kts | 354° |
| 2026-05-04 11:47 | 40.48162 | -3.56318 | 7001 ft | 348 kts | 335° |
| 2026-05-04 11:47 | 40.50349 | -3.57587 | 6457 ft | 342 kts | 332° |
| 2026-05-04 11:47 | 40.52496 | -3.58925 | 5746 ft | 340 kts | 333° |
| 2026-05-04 11:47 | 40.54614 | -3.60282 | 5179 ft | 338 kts | 332° |
| 2026-05-04 11:48 | 40.56783 | -3.61272 | 5008 ft | 324 kts | 347° |
| 2026-05-04 11:48 | 40.58979 | -3.61318 | 4997 ft | 309 kts | 7° |
| 2026-05-04 11:48 | 40.60991 | -3.60570 | 5008 ft | 292 kts | 18° |
| 2026-05-04 11:48 | 40.62829 | -3.59669 | 5004 ft | 273 kts | 25° |
| 2026-05-04 11:49 | 40.64172 | -3.58092 | 5008 ft | 258 kts | 61° |
| 2026-05-04 11:49 | 40.64531 | -3.55899 | 4999 ft | 239 kts | 101° |
| 2026-05-04 11:49 | 40.63822 | -3.54076 | 5000 ft | 218 kts | 146° |
| 2026-05-04 11:49 | 40.62541 | -3.53459 | 5025 ft | 182 kts | 192° |
| 2026-05-04 11:50 | 40.61527 | -3.54082 | 4962 ft | 151 kts | 220° |
| 2026-05-04 11:50 | 40.60673 | -3.54776 | 4721 ft | 140 kts | 213° |
| 2026-05-04 11:50 | 40.59808 | -3.55346 | 4352 ft | 140 kts | 205° |
| 2026-05-04 11:50 | 40.58819 | -3.55681 | 3748 ft | 156 kts | 193° |
| 2026-05-04 11:51 | 40.57700 | -3.55848 | 3107 ft | 166 kts | 185° |
| 2026-05-04 11:51 | 40.56564 | -3.55938 | 2657 ft | 160 kts | 187° |
| 2026-05-04 11:51 | 40.55505 | -3.55951 | 2454 ft | 146 kts | 185° |
| 2026-05-04 11:51 | 40.54517 | -3.55946 | 2245 ft | 139 kts | 186° |
| 2026-05-04 11:52 | 40.53564 | -3.55939 | 2079 ft | 136 kts | 186° |
| 2026-05-04 11:52 | 40.52622 | -3.55933 | 1953 ft | 133 kts | 186° |
| 2026-05-04 11:52 | 40.51845 | -3.55945 | 1954 ft | 88 kts | 180° |
| 2026-05-04 11:52 | 40.51405 | -3.55927 | 1951 ft | 44 kts | 181° |
| 2026-05-04 11:53 | 40.51123 | -3.55943 | 1956 ft | 38 kts | 184° |
| 2026-05-04 11:53 | 40.50913 | -3.56010 | 1961 ft | 25 kts | 220° |
| 2026-05-04 11:53 | 40.50785 | -3.56131 | 1965 ft | 21 kts | 211° |